sensor_id;sensor_type;location;lat;lon;timestamp;pressure;altitude;pressure_sealevel;temperature;humidity
14885;BME280;7534;50.762;7.000;2022-07-19T00:02:06;151622.94;;;20.89;58.24
14885;BME280;7534;50.762;7.000;2022-07-19T00:04:33;151613.69;;;20.86;58.39
14885;BME280;7534;50.762;7.000;2022-07-19T00:06:59;151608.41;;;20.84;58.85
14885;BME280;7534;50.762;7.000;2022-07-19T00:09:25;151596.53;;;20.79;58.80
14885;BME280;7534;50.762;7.000;2022-07-19T00:11:52;151566.16;;;20.68;59.18
14885;BME280;7534;50.762;7.000;2022-07-19T00:14:19;151560.91;;;20.66;59.57
14885;BME280;7534;50.762;7.000;2022-07-19T00:16:45;151551.66;;;20.62;59.75
14885;BME280;7534;50.762;7.000;2022-07-19T00:19:11;151537.16;;;20.56;60.10
14885;BME280;7534;50.762;7.000;2022-07-19T00:21:37;151526.56;;;20.52;60.39
14885;BME280;7534;50.762;7.000;2022-07-19T00:24:03;151512.06;;;20.47;60.36
14885;BME280;7534;50.762;7.000;2022-07-19T00:26:29;151501.53;;;20.43;60.54
14885;BME280;7534;50.762;7.000;2022-07-19T00:28:55;151476.41;;;20.33;60.81
14885;BME280;7534;50.762;7.000;2022-07-19T00:31:23;151442.09;;;20.20;60.72
14885;BME280;7534;50.762;7.000;2022-07-19T00:33:50;151479.13;;;20.34;61.02
14885;BME280;7534;50.762;7.000;2022-07-19T00:36:16;151451.34;;;20.24;61.05
14885;BME280;7534;50.762;7.000;2022-07-19T00:38:42;151438.16;;;20.18;61.63
14885;BME280;7534;50.762;7.000;2022-07-19T00:41:08;151438.16;;;20.18;61.57
14885;BME280;7534;50.762;7.000;2022-07-19T00:43:34;151430.25;;;20.15;61.58
14885;BME280;7534;50.762;7.000;2022-07-19T00:45:59;151388.03;;;19.99;62.02
14885;BME280;7534;50.762;7.000;2022-07-19T00:48:25;151411.78;;;20.08;61.94
14885;BME280;7534;50.762;7.000;2022-07-19T00:50:51;151401.19;;;20.04;62.05
14885;BME280;7534;50.762;7.000;2022-07-19T00:53:18;151394.63;;;20.02;62.55
14885;BME280;7534;50.762;7.000;2022-07-19T00:55:45;151385.38;;;19.98;62.65
14885;BME280;7534;50.762;7.000;2022-07-19T00:58:12;151355.03;;;19.87;62.85
14885;BME280;7534;50.762;7.000;2022-07-19T01:00:42;151356.34;;;19.87;62.89
14885;BME280;7534;50.762;7.000;2022-07-19T01:03:08;151319.44;;;19.73;63.25
14885;BME280;7534;50.762;7.000;2022-07-19T01:05:34;151302.28;;;19.66;63.57
14885;BME280;7534;50.762;7.000;2022-07-19T01:08:00;151295.69;;;19.64;63.39
14885;BME280;7534;50.762;7.000;2022-07-19T01:10:27;151324.72;;;19.75;63.55
14885;BME280;7534;50.762;7.000;2022-07-19T01:12:53;151293.03;;;19.63;63.87
14885;BME280;7534;50.762;7.000;2022-07-19T01:15:26;151302.28;;;19.66;63.97
14885;BME280;7534;50.762;7.000;2022-07-19T01:17:54;151303.63;;;19.67;63.81
14885;BME280;7534;50.762;7.000;2022-07-19T01:20:22;151297.00;;;19.64;63.84
14885;BME280;7534;50.762;7.000;2022-07-19T01:22:49;151274.59;;;19.56;63.54
14885;BME280;7534;50.762;7.000;2022-07-19T01:25:15;151290.44;;;19.62;63.25
14885;BME280;7534;50.762;7.000;2022-07-19T01:27:45;151254.81;;;19.48;62.96
14885;BME280;7534;50.762;7.000;2022-07-19T01:30:18;151294.38;;;19.63;63.35
14885;BME280;7534;50.762;7.000;2022-07-19T01:32:44;151237.63;;;19.41;63.65
14885;BME280;7534;50.762;7.000;2022-07-19T01:35:11;151271.94;;;19.55;63.68
14885;BME280;7534;50.762;7.000;2022-07-19T01:37:38;151244.25;;;19.44;63.88
14885;BME280;7534;50.762;7.000;2022-07-19T01:40:07;151219.19;;;19.34;63.88
14885;BME280;7534;50.762;7.000;2022-07-19T01:42:33;151233.66;;;19.40;64.02
14885;BME280;7534;50.762;7.000;2022-07-19T01:44:59;151213.91;;;19.32;64.43
14885;BME280;7534;50.762;7.000;2022-07-19T01:47:25;151216.53;;;19.33;64.53
14885;BME280;7534;50.762;7.000;2022-07-19T01:49:50;151145.34;;;19.06;64.45
14885;BME280;7534;50.762;7.000;2022-07-19T01:52:16;151199.41;;;19.27;64.79
14885;BME280;7534;50.762;7.000;2022-07-19T01:54:42;151192.81;;;19.24;64.54
14885;BME280;7534;50.762;7.000;2022-07-19T01:57:08;151182.28;;;19.20;64.48
14885;BME280;7534;50.762;7.000;2022-07-19T01:59:36;151182.28;;;19.20;64.25
14885;BME280;7534;50.762;7.000;2022-07-19T02:02:03;151174.34;;;19.17;63.77
14885;BME280;7534;50.762;7.000;2022-07-19T02:04:28;151175.69;;;19.18;63.59
14885;BME280;7534;50.762;7.000;2022-07-19T02:06:54;151174.34;;;19.17;63.49
14885;BME280;7534;50.762;7.000;2022-07-19T02:09:20;151159.88;;;19.12;63.28
14885;BME280;7534;50.762;7.000;2022-07-19T02:11:45;151108.44;;;18.92;63.97
14885;BME280;7534;50.762;7.000;2022-07-19T02:14:11;151136.16;;;19.02;64.00
14885;BME280;7534;50.762;7.000;2022-07-19T02:16:38;151145.34;;;19.06;63.96
14885;BME280;7534;50.762;7.000;2022-07-19T02:19:05;151158.56;;;19.11;63.81
14885;BME280;7534;50.762;7.000;2022-07-19T02:21:34;151119.03;;;18.96;64.04
14885;BME280;7534;50.762;7.000;2022-07-19T02:24:00;151162.53;;;19.13;63.72
14885;BME280;7534;50.762;7.000;2022-07-19T02:26:26;151174.34;;;19.17;63.76
14885;BME280;7534;50.762;7.000;2022-07-19T02:28:52;151202.06;;;19.28;63.65
14885;BME280;7534;50.762;7.000;2022-07-19T02:31:19;151219.19;;;19.34;63.38
14885;BME280;7534;50.762;7.000;2022-07-19T02:33:45;151213.91;;;19.32;63.17
14885;BME280;7534;50.762;7.000;2022-07-19T02:36:11;151188.84;;;19.23;63.26
14885;BME280;7534;50.762;7.000;2022-07-19T02:38:37;151200.72;;;19.27;62.80
14885;BME280;7534;50.762;7.000;2022-07-19T02:41:03;151174.34;;;19.17;62.29
14885;BME280;7534;50.762;7.000;2022-07-19T02:43:29;151182.28;;;19.20;62.02
14885;BME280;7534;50.762;7.000;2022-07-19T02:45:55;151190.16;;;19.23;61.78
14885;BME280;7534;50.762;7.000;2022-07-19T02:48:21;151170.41;;;19.16;61.78
14885;BME280;7534;50.762;7.000;2022-07-19T02:50:46;151182.28;;;19.20;61.81
14885;BME280;7534;50.762;7.000;2022-07-19T02:53:12;151190.16;;;19.23;62.12
14885;BME280;7534;50.762;7.000;2022-07-19T02:55:38;151209.94;;;19.31;61.66
14885;BME280;7534;50.762;7.000;2022-07-19T02:58:04;151195.44;;;19.25;61.99
14885;BME280;7534;50.762;7.000;2022-07-19T03:00:29;151211.25;;;19.31;61.55
14885;BME280;7534;50.762;7.000;2022-07-19T03:02:57;151179.66;;;19.19;61.64
14885;BME280;7534;50.762;7.000;2022-07-19T03:05:42;151194.13;;;19.25;61.37
14885;BME280;7534;50.762;7.000;2022-07-19T03:08:08;151194.13;;;19.25;61.38
14885;BME280;7534;50.762;7.000;2022-07-19T03:10:34;151202.06;;;19.28;61.73
14885;BME280;7534;50.762;7.000;2022-07-19T03:12:59;151187.53;;;19.22;61.56
14885;BME280;7534;50.762;7.000;2022-07-19T03:15:25;151169.06;;;19.15;61.69
14885;BME280;7534;50.762;7.000;2022-07-19T03:17:50;151177.00;;;19.18;61.74
14885;BME280;7534;50.762;7.000;2022-07-19T03:20:16;151158.56;;;19.11;61.92
14885;BME280;7534;50.762;7.000;2022-07-19T03:22:42;151150.63;;;19.08;61.79
14885;BME280;7534;50.762;7.000;2022-07-19T03:25:08;151129.53;;;19.00;61.39
14885;BME280;7534;50.762;7.000;2022-07-19T03:27:34;151133.50;;;19.01;61.95
14885;BME280;7534;50.762;7.000;2022-07-19T03:30:00;151112.41;;;18.93;62.26
14885;BME280;7534;50.762;7.000;2022-07-19T03:32:26;151153.28;;;19.09;62.10
14885;BME280;7534;50.762;7.000;2022-07-19T03:34:52;151140.09;;;19.04;61.77
14885;BME280;7534;50.762;7.000;2022-07-19T03:37:18;151124.25;;;18.98;62.16
14885;BME280;7534;50.762;7.000;2022-07-19T03:39:43;151096.63;;;18.87;62.07
14885;BME280;7534;50.762;7.000;2022-07-19T03:42:09;151084.72;;;18.83;62.32
14885;BME280;7534;50.762;7.000;2022-07-19T03:44:35;151109.78;;;18.92;62.18
14885;BME280;7534;50.762;7.000;2022-07-19T03:47:01;151108.44;;;18.92;62.62
14885;BME280;7534;50.762;7.000;2022-07-19T03:49:26;151140.09;;;19.04;62.65
14885;BME280;7534;50.762;7.000;2022-07-19T03:51:52;151161.19;;;19.12;62.60
14885;BME280;7534;50.762;7.000;2022-07-19T03:54:18;151161.19;;;19.12;62.55
14885;BME280;7534;50.762;7.000;2022-07-19T03:56:44;151158.56;;;19.11;62.40
14885;BME280;7534;50.762;7.000;2022-07-19T03:59:09;151113.75;;;18.94;62.39
14885;BME280;7534;50.762;7.000;2022-07-19T04:01:35;151147.97;;;19.07;62.71
14885;BME280;7534;50.762;7.000;2022-07-19T04:04:04;151146.66;;;19.06;62.83
14885;BME280;7534;50.762;7.000;2022-07-19T04:06:30;151178.31;;;19.19;62.68
14885;BME280;7534;50.762;7.000;2022-07-19T04:08:56;151184.94;;;19.21;62.50
14885;BME280;7534;50.762;7.000;2022-07-19T04:11:22;151180.97;;;19.20;62.63
14885;BME280;7534;50.762;7.000;2022-07-19T04:13:47;151158.56;;;19.11;62.66
14885;BME280;7534;50.762;7.000;2022-07-19T04:16:13;151175.69;;;19.18;62.74
14885;BME280;7534;50.762;7.000;2022-07-19T04:18:39;151207.28;;;19.30;62.59
14885;BME280;7534;50.762;7.000;2022-07-19T04:21:05;151208.63;;;19.30;62.23
14885;BME280;7534;50.762;7.000;2022-07-19T04:23:31;151235.00;;;19.40;62.29
14885;BME280;7534;50.762;7.000;2022-07-19T04:25:57;151236.31;;;19.41;61.91
14885;BME280;7534;50.762;7.000;2022-07-19T04:28:22;151279.88;;;19.58;62.03
14885;BME280;7534;50.762;7.000;2022-07-19T04:30:49;151300.97;;;19.66;61.75
14885;BME280;7534;50.762;7.000;2022-07-19T04:33:17;151339.22;;;19.80;60.68
14885;BME280;7534;50.762;7.000;2022-07-19T04:35:43;151361.63;;;19.89;60.14
14885;BME280;7534;50.762;7.000;2022-07-19T04:38:11;151423.63;;;20.13;58.94
14885;BME280;7534;50.762;7.000;2022-07-19T04:40:38;151484.34;;;20.36;57.03
14885;BME280;7534;50.762;7.000;2022-07-19T04:43:04;151596.53;;;20.79;57.49
14885;BME280;7534;50.762;7.000;2022-07-19T04:45:31;151770.84;;;21.46;54.96
14885;BME280;7534;50.762;7.000;2022-07-19T04:47:56;151979.63;;;22.26;50.97
14885;BME280;7534;50.762;7.000;2022-07-19T04:50:23;152176.59;;;23.02;48.34
14885;BME280;7534;50.762;7.000;2022-07-19T04:52:48;152433.19;;;24.00;46.20
14885;BME280;7534;50.762;7.000;2022-07-19T04:55:14;152606.63;;;24.66;44.63
14885;BME280;7534;50.762;7.000;2022-07-19T04:57:40;152618.56;;;24.71;43.38
14885;BME280;7534;50.762;7.000;2022-07-19T05:00:09;152499.41;;;24.25;44.19
14885;BME280;7534;50.762;7.000;2022-07-19T05:02:36;152394.84;;;23.85;45.44
14885;BME280;7534;50.762;7.000;2022-07-19T05:05:04;152296.94;;;23.48;46.10
14885;BME280;7534;50.762;7.000;2022-07-19T05:07:31;152241.41;;;23.27;46.70
14885;BME280;7534;50.762;7.000;2022-07-19T05:09:57;152158.06;;;22.95;47.65
14885;BME280;7534;50.762;7.000;2022-07-19T05:12:23;152098.53;;;22.72;48.55
14885;BME280;7534;50.762;7.000;2022-07-19T05:14:48;152015.28;;;22.40;49.79
14885;BME280;7534;50.762;7.000;2022-07-19T05:17:15;152009.97;;;22.38;50.12
14885;BME280;7534;50.762;7.000;2022-07-19T05:19:41;151961.13;;;22.19;50.34
14885;BME280;7534;50.762;7.000;2022-07-19T05:22:07;151967.69;;;22.22;50.75
14885;BME280;7534;50.762;7.000;2022-07-19T05:24:33;151982.25;;;22.27;50.69
14885;BME280;7534;50.762;7.000;2022-07-19T05:26:59;152043.03;;;22.51;50.94
14885;BME280;7534;50.762;7.000;2022-07-19T05:29:29;152041.72;;;22.50;51.18
14885;BME280;7534;50.762;7.000;2022-07-19T05:32:05;152062.88;;;22.58;51.04
14885;BME280;7534;50.762;7.000;2022-07-19T05:34:31;152119.72;;;22.80;50.64
14885;BME280;7534;50.762;7.000;2022-07-19T05:36:57;152148.84;;;22.91;50.14
14885;BME280;7534;50.762;7.000;2022-07-19T05:39:22;152142.22;;;22.89;50.39
14885;BME280;7534;50.762;7.000;2022-07-19T05:41:48;152152.81;;;22.93;50.59
14885;BME280;7534;50.762;7.000;2022-07-19T05:44:14;152155.47;;;22.94;50.98
14885;BME280;7534;50.762;7.000;2022-07-19T05:46:39;152201.69;;;23.11;50.34
14885;BME280;7534;50.762;7.000;2022-07-19T05:49:11;152251.94;;;23.31;50.00
14885;BME280;7534;50.762;7.000;2022-07-19T05:51:37;152303.59;;;23.50;49.94
14885;BME280;7534;50.762;7.000;2022-07-19T05:54:04;152314.16;;;23.54;49.59
14885;BME280;7534;50.762;7.000;2022-07-19T05:56:30;152372.34;;;23.77;49.16
14885;BME280;7534;50.762;7.000;2022-07-19T05:58:57;152400.16;;;23.87;48.81
14885;BME280;7534;50.762;7.000;2022-07-19T06:01:23;152420.00;;;23.95;47.79
14885;BME280;7534;50.762;7.000;2022-07-19T06:03:56;152443.81;;;24.04;47.65
14885;BME280;7534;50.762;7.000;2022-07-19T06:06:24;152498.09;;;24.25;47.40
14885;BME280;7534;50.762;7.000;2022-07-19T06:08:50;152510.03;;;24.29;46.72
14885;BME280;7534;50.762;7.000;2022-07-19T06:11:17;152532.53;;;24.38;46.36
14885;BME280;7534;50.762;7.000;2022-07-19T06:13:44;152594.72;;;24.62;45.95
14885;BME280;7534;50.762;7.000;2022-07-19T06:16:11;152580.19;;;24.56;45.52
14885;BME280;7534;50.762;7.000;2022-07-19T06:18:37;152603.97;;;24.65;45.02
14885;BME280;7534;50.762;7.000;2022-07-19T06:21:10;152658.28;;;24.86;44.62
14885;BME280;7534;50.762;7.000;2022-07-19T06:23:37;152715.25;;;25.08;44.23
14885;BME280;7534;50.762;7.000;2022-07-19T06:26:05;152770.88;;;25.29;43.88
14885;BME280;7534;50.762;7.000;2022-07-19T06:28:31;152796.00;;;25.39;42.98
14885;BME280;7534;50.762;7.000;2022-07-19T06:30:58;152814.53;;;25.46;43.11
14885;BME280;7534;50.762;7.000;2022-07-19T06:33:24;152856.97;;;25.62;43.06
14885;BME280;7534;50.762;7.000;2022-07-19T06:35:50;152890.13;;;25.75;42.33
14885;BME280;7534;50.762;7.000;2022-07-19T06:38:16;152917.97;;;25.86;42.18
14885;BME280;7534;50.762;7.000;2022-07-19T06:40:42;152927.22;;;25.89;41.26
14885;BME280;7534;50.762;7.000;2022-07-19T06:43:08;153001.44;;;26.17;41.26
14885;BME280;7534;50.762;7.000;2022-07-19T06:45:34;153042.56;;;26.33;40.80
14885;BME280;7534;50.762;7.000;2022-07-19T06:48:00;153099.53;;;26.55;40.52
14885;BME280;7534;50.762;7.000;2022-07-19T06:50:26;153173.81;;;26.83;39.55
14885;BME280;7534;50.762;7.000;2022-07-19T06:52:52;153311.75;;;27.36;39.05
14885;BME280;7534;50.762;7.000;2022-07-19T06:55:18;153624.97;;;28.56;37.50
14885;BME280;7534;50.762;7.000;2022-07-19T06:57:44;153850.84;;;29.42;35.42
14885;BME280;7534;50.762;7.000;2022-07-19T07:00:11;154325.44;;;31.23;32.47
14885;BME280;7534;50.762;7.000;2022-07-19T07:02:38;154836.56;;;33.17;28.79
14885;BME280;7534;50.762;7.000;2022-07-19T07:05:07;155440.47;;;35.47;25.16
14885;BME280;7534;50.762;7.000;2022-07-19T07:07:33;155907.66;;;37.24;22.89
14885;BME280;7534;50.762;7.000;2022-07-19T07:09:59;156208.22;;;38.38;21.84
14885;BME280;7534;50.762;7.000;2022-07-19T07:12:28;156252.38;;;38.55;21.27
14885;BME280;7534;50.762;7.000;2022-07-19T07:14:58;156316.50;;;38.79;20.52
14885;BME280;7534;50.762;7.000;2022-07-19T07:17:24;156498.41;;;39.48;19.99
14885;BME280;7534;50.762;7.000;2022-07-19T07:19:50;156819.47;;;40.70;19.03
14885;BME280;7534;50.762;7.000;2022-07-19T07:22:16;157009.50;;;41.42;17.96
14885;BME280;7534;50.762;7.000;2022-07-19T07:24:41;157290.78;;;42.48;17.16
14885;BME280;7534;50.762;7.000;2022-07-19T07:27:08;157426.03;;;42.99;16.21
14885;BME280;7534;50.762;7.000;2022-07-19T07:29:34;157485.00;;;43.22;15.73
14885;BME280;7534;50.762;7.000;2022-07-19T07:32:00;157491.72;;;43.24;15.41
14885;BME280;7534;50.762;7.000;2022-07-19T07:34:26;157627.09;;;43.75;15.63
14885;BME280;7534;50.762;7.000;2022-07-19T07:36:51;157586.91;;;43.60;15.82
14885;BME280;7534;50.762;7.000;2022-07-19T07:39:18;157692.81;;;44.00;15.32
14885;BME280;7534;50.762;7.000;2022-07-19T07:41:45;157762.53;;;44.27;14.94
14885;BME280;7534;50.762;7.000;2022-07-19T07:44:11;157794.72;;;44.39;15.08
14885;BME280;7534;50.762;7.000;2022-07-19T07:46:37;157621.75;;;43.73;14.80
14885;BME280;7534;50.762;7.000;2022-07-19T07:49:03;157629.78;;;43.77;15.18
14885;BME280;7534;50.762;7.000;2022-07-19T07:51:29;157487.69;;;43.23;15.76
14885;BME280;7534;50.762;7.000;2022-07-19T07:53:55;157798.75;;;44.40;14.34
14885;BME280;7534;50.762;7.000;2022-07-19T07:56:23;158001.25;;;45.17;13.95
14885;BME280;7534;50.762;7.000;2022-07-19T07:58:49;158164.94;;;45.79;13.49
14885;BME280;7534;50.762;7.000;2022-07-19T08:01:15;158123.38;;;45.63;13.49
14885;BME280;7534;50.762;7.000;2022-07-19T08:03:41;157698.19;;;44.02;14.49
14885;BME280;7534;50.762;7.000;2022-07-19T08:06:07;157281.38;;;42.45;15.67
14885;BME280;7534;50.762;7.000;2022-07-19T08:08:33;157414.00;;;42.95;15.31
14885;BME280;7534;50.762;7.000;2022-07-19T08:10:59;157714.25;;;44.08;14.44
14885;BME280;7534;50.762;7.000;2022-07-19T08:13:25;157869.81;;;44.67;13.77
14885;BME280;7534;50.762;7.000;2022-07-19T08:15:51;157958.28;;;45.01;13.78
14885;BME280;7534;50.762;7.000;2022-07-19T08:18:17;157722.28;;;44.11;14.11
14885;BME280;7534;50.762;7.000;2022-07-19T08:20:43;157576.19;;;43.56;14.70
14885;BME280;7534;50.762;7.000;2022-07-19T08:23:09;157836.25;;;44.55;13.65
14885;BME280;7534;50.762;7.000;2022-07-19T08:25:35;158048.19;;;45.35;13.05
14885;BME280;7534;50.762;7.000;2022-07-19T08:28:02;157754.47;;;44.24;13.93
14885;BME280;7534;50.762;7.000;2022-07-19T08:30:29;157955.66;;;45.00;13.26
14885;BME280;7534;50.762;7.000;2022-07-19T08:32:55;158128.69;;;45.65;12.67
14885;BME280;7534;50.762;7.000;2022-07-19T08:35:21;158359.59;;;46.52;11.70
14885;BME280;7534;50.762;7.000;2022-07-19T08:37:48;158516.66;;;47.12;11.57
14885;BME280;7534;50.762;7.000;2022-07-19T08:40:14;158462.94;;;46.91;11.50
14885;BME280;7534;50.762;7.000;2022-07-19T08:42:39;158269.63;;;46.18;11.87
14885;BME280;7534;50.762;7.000;2022-07-19T08:45:10;158496.53;;;47.04;11.45
14885;BME280;7534;50.762;7.000;2022-07-19T08:47:37;158634.88;;;47.56;10.90
14885;BME280;7534;50.762;7.000;2022-07-19T08:50:08;158407.91;;;46.70;11.39
14885;BME280;7534;50.762;7.000;2022-07-19T08:52:35;158162.25;;;45.78;11.58
14885;BME280;7534;50.762;7.000;2022-07-19T08:55:02;158201.19;;;45.92;11.80
14885;BME280;7534;50.762;7.000;2022-07-19T08:57:28;158037.50;;;45.31;12.24
14885;BME280;7534;50.762;7.000;2022-07-19T09:00:32;158140.81;;;45.70;11.77
14885;BME280;7534;50.762;7.000;2022-07-19T09:03:01;158237.41;;;46.06;11.56
14885;BME280;7534;50.762;7.000;2022-07-19T09:05:28;158185.13;;;45.86;11.36
14885;BME280;7534;50.762;7.000;2022-07-19T09:08:14;158053.56;;;45.37;11.84
14885;BME280;7534;50.762;7.000;2022-07-19T09:10:46;158100.56;;;45.54;11.70
14885;BME280;7534;50.762;7.000;2022-07-19T09:13:31;157962.31;;;45.02;11.76
14885;BME280;7534;50.762;7.000;2022-07-19T09:15:59;158002.59;;;45.17;11.37
14885;BME280;7534;50.762;7.000;2022-07-19T09:18:33;157842.97;;;44.57;11.85
14885;BME280;7534;50.762;7.000;2022-07-19T09:21:05;157729.00;;;44.14;12.19
14885;BME280;7534;50.762;7.000;2022-07-19T09:23:32;157738.38;;;44.18;12.20
14885;BME280;7534;50.762;7.000;2022-07-19T09:26:05;158017.38;;;45.23;11.58
14885;BME280;7534;50.762;7.000;2022-07-19T09:28:35;158081.81;;;45.47;10.92
14885;BME280;7534;50.762;7.000;2022-07-19T09:31:03;158283.06;;;46.23;10.86
14885;BME280;7534;50.762;7.000;2022-07-19T09:33:32;158252.19;;;46.12;11.25
14885;BME280;7534;50.762;7.000;2022-07-19T09:36:02;158374.31;;;46.58;10.43
14885;BME280;7534;50.762;7.000;2022-07-19T09:38:31;158390.47;;;46.64;9.99
14885;BME280;7534;50.762;7.000;2022-07-19T09:44:01;158219.97;;;46.00;10.31
14885;BME280;7534;50.762;7.000;2022-07-19T09:46:40;158093.84;;;45.52;10.86
14885;BME280;7534;50.762;7.000;2022-07-19T09:49:12;158244.13;;;46.09;10.43
14885;BME280;7534;50.762;7.000;2022-07-19T09:51:47;158077.72;;;45.46;10.47
14885;BME280;7534;50.762;7.000;2022-07-19T09:54:17;157970.41;;;45.05;10.90
14885;BME280;7534;50.762;7.000;2022-07-19T09:56:47;157896.63;;;44.77;10.78
14885;BME280;7534;50.762;7.000;2022-07-19T09:59:14;157939.53;;;44.94;10.25
14885;BME280;7534;50.762;7.000;2022-07-19T10:01:42;157960.97;;;45.02;10.09
14885;BME280;7534;50.762;7.000;2022-07-19T10:04:16;157707.53;;;44.06;10.84
14885;BME280;7534;50.762;7.000;2022-07-19T10:06:47;157648.56;;;43.84;10.51
14885;BME280;7534;50.762;7.000;2022-07-19T10:09:19;157615.03;;;43.71;10.69
14885;BME280;7534;50.762;7.000;2022-07-19T10:11:45;157487.69;;;43.23;10.68
14885;BME280;7534;50.762;7.000;2022-07-19T10:14:11;157511.81;;;43.32;11.07
14885;BME280;7534;50.762;7.000;2022-07-19T10:19:26;157383.19;;;42.83;11.01
14885;BME280;7534;50.762;7.000;2022-07-19T10:21:54;157132.69;;;41.88;11.25
14885;BME280;7534;50.762;7.000;2022-07-19T10:24:54;157043.00;;;41.55;11.96
14885;BME280;7534;50.762;7.000;2022-07-19T10:32:30;156974.69;;;41.29;11.83
14885;BME280;7534;50.762;7.000;2022-07-19T10:40:46;156852.91;;;40.83;11.85
14885;BME280;7534;50.762;7.000;2022-07-19T10:43:14;156736.44;;;40.38;12.63
14885;BME280;7534;50.762;7.000;2022-07-19T10:51:02;156819.47;;;40.70;12.66
14885;BME280;7534;50.762;7.000;2022-07-19T10:59:06;156882.34;;;40.94;11.77
14885;BME280;7534;50.762;7.000;2022-07-19T11:01:34;156859.59;;;40.85;12.30
14885;BME280;7534;50.762;7.000;2022-07-19T11:04:32;156757.84;;;40.47;12.26
14885;BME280;7534;50.762;7.000;2022-07-19T11:07:18;156626.78;;;39.97;12.24
14885;BME280;7534;50.762;7.000;2022-07-19T11:09:56;156559.88;;;39.72;12.79
14885;BME280;7534;50.762;7.000;2022-07-19T11:14:59;156555.88;;;39.70;12.75
14885;BME280;7534;50.762;7.000;2022-07-19T11:17:25;156541.19;;;39.64;13.23
14885;BME280;7534;50.762;7.000;2022-07-19T11:20:12;156581.28;;;39.80;13.19
14885;BME280;7534;50.762;7.000;2022-07-19T11:22:45;156558.53;;;39.71;13.11
14885;BME280;7534;50.762;7.000;2022-07-19T11:25:15;156502.38;;;39.50;13.36
14885;BME280;7534;50.762;7.000;2022-07-19T11:27:44;156513.09;;;39.54;13.67
14885;BME280;7534;50.762;7.000;2022-07-19T11:32:39;156521.06;;;39.57;13.29
14885;BME280;7534;50.762;7.000;2022-07-19T11:35:10;156477.00;;;39.40;13.24
14885;BME280;7534;50.762;7.000;2022-07-19T11:37:39;156435.47;;;39.24;13.56
14885;BME280;7534;50.762;7.000;2022-07-19T11:40:08;156419.44;;;39.18;13.79
14885;BME280;7534;50.762;7.000;2022-07-19T11:42:53;156399.41;;;39.11;14.00
14885;BME280;7534;50.762;7.000;2022-07-19T11:45:23;156383.38;;;39.05;13.89
14885;BME280;7534;50.762;7.000;2022-07-19T11:47:56;156394.03;;;39.09;14.07
14885;BME280;7534;50.762;7.000;2022-07-19T11:50:26;156428.84;;;39.22;13.55
14885;BME280;7534;50.762;7.000;2022-07-19T11:52:55;156442.19;;;39.27;13.80
14885;BME280;7534;50.762;7.000;2022-07-19T11:55:24;156523.75;;;39.58;13.45
14885;BME280;7534;50.762;7.000;2022-07-19T11:57:52;156509.06;;;39.52;13.16
14885;BME280;7534;50.762;7.000;2022-07-19T12:00:19;156486.34;;;39.44;13.18
14885;BME280;7534;50.762;7.000;2022-07-19T12:05:18;156498.41;;;39.48;13.18
14885;BME280;7534;50.762;7.000;2022-07-19T12:07:49;156578.59;;;39.79;12.50
14885;BME280;7534;50.762;7.000;2022-07-19T12:13:07;156624.09;;;39.96;12.40
14885;BME280;7534;50.762;7.000;2022-07-19T12:18:41;156563.84;;;39.73;12.15
14885;BME280;7534;50.762;7.000;2022-07-19T12:24:16;156594.69;;;39.85;11.83
14885;BME280;7534;50.762;7.000;2022-07-19T12:29:35;156626.78;;;39.97;11.66
14885;BME280;7534;50.762;7.000;2022-07-19T12:32:05;156590.66;;;39.83;12.06
14885;BME280;7534;50.762;7.000;2022-07-19T12:34:47;156511.75;;;39.53;12.46
14885;BME280;7534;50.762;7.000;2022-07-19T12:37:28;156549.16;;;39.67;12.30
14885;BME280;7534;50.762;7.000;2022-07-19T12:40:11;156549.16;;;39.67;12.41
14885;BME280;7534;50.762;7.000;2022-07-19T12:42:44;156545.16;;;39.66;12.14
14885;BME280;7534;50.762;7.000;2022-07-19T12:45:22;156581.28;;;39.80;12.33
14885;BME280;7534;50.762;7.000;2022-07-19T12:47:50;156628.09;;;39.97;12.26
14885;BME280;7534;50.762;7.000;2022-07-19T12:50:21;156673.56;;;40.15;12.05
14885;BME280;7534;50.762;7.000;2022-07-19T12:52:48;156740.47;;;40.40;11.87
14885;BME280;7534;50.762;7.000;2022-07-19T12:55:14;156784.63;;;40.57;12.01
14885;BME280;7534;50.762;7.000;2022-07-19T12:57:40;156835.50;;;40.76;11.75
14885;BME280;7534;50.762;7.000;2022-07-19T13:00:07;156843.50;;;40.79;12.02
14885;BME280;7534;50.762;7.000;2022-07-19T13:02:33;156860.94;;;40.86;11.55
14885;BME280;7534;50.762;7.000;2022-07-19T13:04:58;156878.31;;;40.92;11.64
14885;BME280;7534;50.762;7.000;2022-07-19T13:07:24;156903.75;;;41.02;11.56
14885;BME280;7534;50.762;7.000;2022-07-19T13:09:51;156927.84;;;41.11;11.49
14885;BME280;7534;50.762;7.000;2022-07-19T13:12:16;156942.59;;;41.17;10.80
14885;BME280;7534;50.762;7.000;2022-07-19T13:14:42;156990.78;;;41.35;10.92
14885;BME280;7534;50.762;7.000;2022-07-19T13:17:08;156988.09;;;41.34;11.56
14885;BME280;7534;50.762;7.000;2022-07-19T13:19:37;156970.66;;;41.27;11.20
14885;BME280;7534;50.762;7.000;2022-07-19T13:22:04;157005.47;;;41.40;11.69
14885;BME280;7534;50.762;7.000;2022-07-19T13:24:30;156988.09;;;41.34;12.10
14885;BME280;7534;50.762;7.000;2022-07-19T13:26:55;156981.41;;;41.31;11.61
14885;BME280;7534;50.762;7.000;2022-07-19T13:29:21;157016.16;;;41.44;12.07
14885;BME280;7534;50.762;7.000;2022-07-19T13:31:48;157065.75;;;41.63;11.92
14885;BME280;7534;50.762;7.000;2022-07-19T13:34:13;156993.41;;;41.36;11.94
14885;BME280;7534;50.762;7.000;2022-07-19T13:36:39;156943.94;;;41.17;11.99
14885;BME280;7534;50.762;7.000;2022-07-19T13:39:05;156886.31;;;40.95;11.60
14885;BME280;7534;50.762;7.000;2022-07-19T13:41:31;156852.91;;;40.83;12.58
14885;BME280;7534;50.762;7.000;2022-07-19T13:43:57;156851.56;;;40.82;12.51
14885;BME280;7534;50.762;7.000;2022-07-19T13:46:22;156895.72;;;40.99;12.56
14885;BME280;7534;50.762;7.000;2022-07-19T13:48:49;156887.66;;;40.96;12.62
14885;BME280;7534;50.762;7.000;2022-07-19T13:51:15;156931.88;;;41.12;12.75